Headquarters, Valles Caldera, New Mexico Weather observations

Data are for 10 minute period ending at time listed.
 Day   Time   Solar   Ave.   Ave.  Ave.  Vector  Max.   Baro.   Total    
  of    of     Rad.   Air    Rel.  Wind   Wind   Wind  Press.  Precip.   
Year   Day            Temp.  Hum.  Speed  Dir.   Gust                    
2015   (MST)  Kw/m2    F      %     mph   deg.    mph    mb.     in.     
-------------------------------------------------------------------------
 246   21:20   0.00   48.4    73    3.2   272     4.2   743.1    0.00 
 246   21:30   0.00   48.4    73    3.1   281     4.8   743.1    0.00 
 246   21:40   0.00   48.1    74    2.2   314     3.0   743.1    0.00 
 246   21:50   0.00   48.1    73    2.4   304     3.6   743.1    0.00 
 246   22:00   0.00   47.6    74    3.1   249     4.8   743.0    0.00 
 246   22:10   0.00   46.9    76    3.8   278     4.8   743.0    0.00 
 246   22:20   0.00   46.9    76    3.0   267     4.8   743.0    0.00 
 246   22:30   0.00   46.9    76    3.0   263     4.2   742.9    0.00 
 246   22:40   0.00   47.1    75    3.7   273     4.8   742.9    0.00 
 246   22:50   0.00   47.0    76    2.3   272     4.8   742.9    0.00 
 246   23:00   0.00   44.4    79    1.7    23     3.0   742.9    0.00 
 246   23:10   0.00   43.5    83    2.3   274     3.6   742.9    0.00 
 246   23:20   0.00   44.3    81    2.7   268     3.6   742.8    0.00 
 246   23:30   0.00   44.0    82    2.6   354     3.6   742.8    0.00 
 246   23:40   0.00   44.5    80    2.4    12     3.6   742.8    0.00 
 246   23:50   0.00   45.0    78    2.9   301     4.2   742.9    0.00 
 247    0:00   0.00   44.8    78    3.4   277     4.2   742.9    0.00 
 247    0:10   0.00   44.2    79    3.0   242     4.8   742.9    0.00 
 247    0:20   0.00   44.2    80    2.3   278     3.6   742.9    0.00 
 247    0:30   0.00   45.0    78    3.8   241     5.4   742.9    0.00 
 247    0:40   0.00   44.5    80    3.7   283     4.2   742.9    0.00 
 247    0:50   0.00   45.1    80    4.3   283     5.4   742.9    0.00 
 247    1:00   0.00   45.7    81    3.7   292     4.8   742.8    0.00 
 247    1:10   0.00   45.5    81    2.1   300     3.6   742.8    0.00 
 247    1:20   0.00   43.0    84    1.7   358     3.0   742.8    0.00 
 247    1:30   0.00   42.6    87    1.4   242     3.0   742.6    0.00 
 247    1:40   0.00   43.3    87    2.1   281     3.6   742.5    0.00 
 247    1:50   0.00   42.8    86    1.8    25     3.0   742.5    0.00 
 247    2:00   0.00   42.5    86    1.9   211     2.4   742.5    0.00 
 247    2:10   0.00   42.2    87    4.0   246     5.4   742.5    0.00 
 247    2:20   100.00  99999.0   99999  99999.0   99999   99999.0   99999.0   99999.00 
 247    2:30   100.00  99999.0   99999  99999.0   99999   99999.0   99999.0   99999.00 
 247    2:40   100.00  99999.0   99999  99999.0   99999   99999.0   99999.0   99999.00 
 247    2:50   100.00  99999.0   99999  99999.0   99999   99999.0   99999.0   99999.00 
 247    3:00   100.00  99999.0   99999  99999.0   99999   99999.0   99999.0   99999.00 
 247    3:10   100.00  99999.0   99999  99999.0   99999   99999.0   99999.0   99999.00 
 247    3:20   0.00   45.5    85    2.7   287     4.2   742.5    0.00 
 247    3:30   0.00   46.1    85    3.4   243     5.4   742.5    0.00 
 247    3:40   0.00   46.2    86    3.5   256     4.8   742.5    0.00 
 247    3:50   0.00   46.5    85    1.7    53     3.0   742.4    0.00 
 247    4:00   0.00   44.3    85    2.3    23     3.6   742.4    0.00 
 247    4:10   0.00   43.8    86    1.6    77     3.6   742.4    0.00 
 247    4:20   0.00   43.6    87    2.1   237     3.0   742.4    0.00 
 247    4:30   0.00   44.0    88    2.6   277     3.6   742.4    0.00 
 247    4:40   0.00   44.6    89    2.5   210     3.6   742.4    0.00 
 247    4:50   0.00   44.9    89    1.2   204     3.0   742.4    0.00 
 247    5:00   0.00   45.0    88    1.1    64     2.4   742.4    0.00 
 247    5:10   0.00   44.6    89    1.8    80     2.4   742.5    0.00 
 247    5:20   0.00   44.3    90    1.7   248     4.2   742.6    0.00 
 247    5:30   0.00   44.8    91    2.5   235     3.6   742.7    0.00 
 247    5:40   0.00   45.4    91    1.8   228     3.6   742.8    0.00 
 247    5:50   0.00   45.7    90    2.5   236     3.6   742.9    0.00 
 247    6:00   0.00   46.3    90    2.1   231     3.0   742.9    0.00 
 247    6:10   0.01   47.1    89    2.0   236     3.6   742.9    0.00 
 247    6:20   0.01   47.7    88    1.0    86     3.0   743.1    0.00 
 247    6:30   0.01   47.1    87    1.8    69     4.2   743.1    0.00 
 247    6:40   0.03   45.9    87    1.7    55     3.6   743.2    0.00 
 247    6:50   0.04   46.1    87    0.6   314     1.8   743.2    0.00 
 247    7:00   0.04   47.0    85    0.9   292     1.8   743.4    0.00 
 247    7:10   0.04   48.1    84    0.3   167     1.8   743.4    0.00 
 247    7:20   0.06   48.5    84    1.1   170     1.8   743.3    0.00 
 247    7:30   0.07   49.1    82    1.2   209     2.4   743.4    0.00 
 247    7:40   0.08   50.2    80    1.3   240     2.4   743.5    0.00 
 247    7:50   0.12   51.7    80    0.3   348     1.8   743.6    0.00 
 247    8:00   0.12   52.7    80    1.5    86     2.4   743.6    0.00 
 247    8:10   0.10   52.5    80    1.9    90     3.0   743.7    0.00 
 247    8:20   0.09   52.3    81    1.1    90     2.4   743.7    0.00 
 247    8:30   0.09   52.8    80    1.5   213     2.4   743.7    0.00 
 247    8:40   0.12   53.9    78    1.8   222     3.0   743.7    0.00 
 247    8:50   0.10   53.8    79    2.6    84     3.6   743.8    0.00 
 247    9:00   0.08   52.9    80    1.8    94     3.0   743.9    0.00 
 247    9:10   0.07   53.1    79    0.6    68     1.8   744.0    0.00 
 247    9:20   0.09   53.4    78    1.5    61     2.4   744.1    0.00 
 247    9:30   0.10   53.7    77    1.6    58     2.4   744.1    0.00 
 247    9:40   0.11   54.5    78    0.7    33     2.4   744.2    0.00 
 247    9:50   0.15   55.4    77    1.4    82     2.4   744.1    0.00 
 247   10:00   0.13   56.3    75    0.7   113     2.4   744.1    0.00 
 247   10:10   0.17   57.6    72    0.1   190     1.2   744.1    0.00 
 247   10:20   0.16   59.3    64    0.9   197     3.0   744.2    0.00 
 247   10:30   0.18   59.5    57    2.6   170     4.8   744.2    0.00 
 247   10:40   0.19   59.3    58    3.5   144     6.6   744.1    0.00 
 247   10:50   0.26   59.5    58    3.3   159     6.0   744.1    0.00 
 247   11:00   0.25   60.3    56    3.5   165     8.4   744.0    0.00 
 247   11:10   0.20   60.3    58    3.5   143     7.2   744.1    0.00 
 247   11:20   0.12   60.1    56    3.7   194     7.2   744.1    0.00 
 247   11:30   0.20   59.7    58    3.5   169     5.4   744.1    0.00 
 247   11:40   0.36   60.5    58    3.3   161     6.6   744.0    0.00 
 247   11:50   0.34   63.0    53    4.9   229    11.9   743.9    0.00 
 247   12:00   0.24   61.9    54    8.6   234    14.3   743.9    0.00 
 247   12:10   0.16   59.6    59   10.1   226    15.5   744.0    0.00 
 247   12:20   0.16   58.9    62    6.1   231     9.6   743.9    0.00 
 247   12:30   0.12   58.7    62    5.5   233     8.4   743.9    0.00 
 247   12:40   0.09   58.9    62    6.2   222    11.3   743.9    0.00 
 247   12:50   0.24   59.5    62    6.9   211    13.1   743.8    0.00 
 247   13:00   0.41   60.3    61    7.5   214    12.5   743.8    0.00 
 247   13:10   0.28   61.7    57    8.6   228    14.3   743.8    0.00 
 247   13:20   0.22   61.0    59    7.6   236    15.5   743.8    0.00 
 247   13:30   0.21   60.4    60    8.6   216    13.1   743.9    0.00 
 247   13:40   0.19   59.6    63    8.0   226    13.7   743.9    0.00 
 247   13:50   100.00  99999.0   99999  99999.0   99999   99999.0   99999.0   99999.00 
 247   14:00   100.00  99999.0   99999  99999.0   99999   99999.0   99999.0   99999.00 
 247   14:10   100.00  99999.0   99999  99999.0   99999   99999.0   99999.0   99999.00 
 247   14:20   0.07   54.2    83    4.7   243     8.4   744.0    0.01 
 247   14:30   0.07   53.6    84    5.9   253     9.6   743.9    0.02 
 247   14:40   0.10   53.4    86    4.8   245     7.8   743.8    0.02 
 247   14:50   0.06   53.6    86    3.6   232     5.4   743.8    0.01 
 247   15:00   0.11   53.6    86    5.5   218    11.3   743.7    0.00 
 247   15:10   0.07   53.8    85    6.3   217    10.8   743.7    0.00 
 247   15:20   0.06   53.3    88    4.0   207     7.8   743.7    0.02 
 247   15:30   0.12   53.2    88    6.9   225    10.8   743.7    0.01 
 247   15:40   0.10   53.2    88    6.3   211     9.0   743.6    0.00 
 247   15:50   0.15   53.5    87    6.7   213     9.6   743.6    0.01 
 247   16:00   0.18   54.1    86    5.7   214     9.0   743.6    0.00 
 247   16:10   0.15   54.6    85    5.2   215     8.4   743.6    0.00 
 247   16:20   0.09   54.8    84    3.7   223     6.0   743.6    0.00 
 247   16:30   0.08   54.4    84    3.0   263     4.8   743.5    0.00 
 247   16:40   0.06   54.3    84    2.6   248     5.4   743.4    0.00 
 247   16:50   0.04   54.0    85    1.4   223     3.0   743.4    0.00 
 247   17:00   0.03   53.9    86    0.8   288     2.4   743.4    0.00 
 247   17:10   0.04   53.5    88    0.4   177     1.8   743.3    0.00 
 247   17:20   0.04   53.6    89    1.7   229     3.6   743.3    0.00 
 247   17:30   0.03   53.2    83    6.4   196    12.5   743.4    0.01 
 247   17:40   0.03   52.5    82    4.8   204     8.4   743.4    0.00 
 247   17:50   0.06   52.4    85    3.2   237     6.0   743.2    0.01 
 247   18:00   0.03   52.3    85    5.3   233     9.0   743.3    0.00 
 247   18:10   0.01   51.7    86    6.8   227    10.2   743.4    0.01 
 247   18:20   0.01   51.2    87    6.6   238    10.2   743.3    0.01 
 247   18:30   0.00   51.0    88    4.7   228     8.4   743.3    0.01 
 247   18:40   0.00   50.9    88    4.6   230     9.0   743.3    0.01 
 247   18:50   0.00   50.9    88    4.1   237     7.2   743.3    0.00 
 247   19:00   0.00   51.0    87    4.5   240    10.2   743.3    0.01 
 247   19:10   0.00   51.0    87    2.6   272     4.8   743.5    0.00 
 247   19:20   0.00   50.6    89    1.0   170     3.6   743.6    0.00 
 247   19:30   0.00   50.4    91    1.8    26     3.6   743.7    0.01 
 247   19:40   0.00   50.3    91    1.6   325     2.4   743.7    0.00 
 247   19:50   0.00   50.2    92    2.6    29     7.2   743.7    0.01 
 247   20:00   0.00   50.6    90    3.5   180     9.6   743.7    0.00 
 247   20:10   0.00   51.0    88    2.5   223     6.0   743.8    0.00 
 247   20:20   0.00   50.8    89    4.1   231     6.0   744.0    0.00 
 247   20:30   0.00   50.9    90    3.8   203     8.4   744.0    0.01 
 247   20:40   0.00   51.2    89    4.5   206     8.4   744.1    0.00 
 247   20:50   0.00   51.2    89    6.2   229    10.2   744.1    0.00 
 247   21:00   0.00   50.9    90    6.2   221     9.0   744.1    0.00 
 247   21:10   0.00   50.7    90    4.5   209     6.6   744.1    0.00 

Return to Headquarters, Valles Caldera graphs page.


Western Regional Climate Center,wrcc@dri.edu